sensor_id;sensor_type;location;lat;lon;timestamp;P1;durP1;ratioP1;P2;durP2;ratioP2
77586;SDS011;66744;49.716;17.158;2024-01-11T00:02:39;50.63;;;21.02;;
77586;SDS011;66744;49.716;17.158;2024-01-11T00:08:42;52.67;;;23.45;;
77586;SDS011;66744;49.716;17.158;2024-01-11T00:14:45;58.38;;;23.60;;
77586;SDS011;66744;49.716;17.158;2024-01-11T00:17:46;56.40;;;25.55;;
77586;SDS011;66744;49.716;17.158;2024-01-11T00:20:47;50.38;;;23.00;;
77586;SDS011;66744;49.716;17.158;2024-01-11T00:23:49;49.45;;;22.52;;
77586;SDS011;66744;49.716;17.158;2024-01-11T00:26:50;57.25;;;23.30;;
77586;SDS011;66744;49.716;17.158;2024-01-11T00:29:52;54.70;;;22.77;;
77586;SDS011;66744;49.716;17.158;2024-01-11T00:32:54;52.88;;;22.95;;
77586;SDS011;66744;49.716;17.158;2024-01-11T00:35:56;62.38;;;26.95;;
77586;SDS011;66744;49.716;17.158;2024-01-11T00:38:57;53.35;;;24.55;;
77586;SDS011;66744;49.716;17.158;2024-01-11T00:44:59;61.55;;;25.52;;
77586;SDS011;66744;49.716;17.158;2024-01-11T00:48:01;61.22;;;25.33;;
77586;SDS011;66744;49.716;17.158;2024-01-11T00:51:04;66.47;;;25.75;;
77586;SDS011;66744;49.716;17.158;2024-01-11T00:54:07;68.53;;;28.45;;
77586;SDS011;66744;49.716;17.158;2024-01-11T00:57:08;66.32;;;29.27;;
77586;SDS011;66744;49.716;17.158;2024-01-11T01:00:10;66.00;;;28.83;;
77586;SDS011;66744;49.716;17.158;2024-01-11T01:03:15;69.07;;;30.30;;
77586;SDS011;66744;49.716;17.158;2024-01-11T01:06:17;65.72;;;27.27;;
77586;SDS011;66744;49.716;17.158;2024-01-11T01:09:18;73.75;;;27.15;;
77586;SDS011;66744;49.716;17.158;2024-01-11T01:12:19;62.78;;;26.70;;
77586;SDS011;66744;49.716;17.158;2024-01-11T01:15:20;63.20;;;27.25;;
77586;SDS011;66744;49.716;17.158;2024-01-11T01:18:21;60.55;;;26.02;;
77586;SDS011;66744;49.716;17.158;2024-01-11T01:21:23;60.55;;;27.33;;
77586;SDS011;66744;49.716;17.158;2024-01-11T01:24:24;59.03;;;27.20;;
77586;SDS011;66744;49.716;17.158;2024-01-11T01:27:25;58.30;;;27.48;;
77586;SDS011;66744;49.716;17.158;2024-01-11T01:30:27;58.17;;;27.00;;
77586;SDS011;66744;49.716;17.158;2024-01-11T01:36:29;73.03;;;30.15;;
77586;SDS011;66744;49.716;17.158;2024-01-11T01:39:30;67.45;;;30.67;;
77586;SDS011;66744;49.716;17.158;2024-01-11T01:42:32;70.28;;;30.00;;
77586;SDS011;66744;49.716;17.158;2024-01-11T01:45:33;74.07;;;30.48;;
77586;SDS011;66744;49.716;17.158;2024-01-11T01:48:35;67.45;;;29.92;;
77586;SDS011;66744;49.716;17.158;2024-01-11T01:51:37;68.45;;;32.05;;
77586;SDS011;66744;49.716;17.158;2024-01-11T01:57:39;74.65;;;28.20;;
77586;SDS011;66744;49.716;17.158;2024-01-11T02:05:18;55.28;;;25.77;;
77586;SDS011;66744;49.716;17.158;2024-01-11T02:08:22;63.78;;;28.25;;
77586;SDS011;66744;49.716;17.158;2024-01-11T02:11:26;66.93;;;26.70;;
77586;SDS011;66744;49.716;17.158;2024-01-11T02:14:31;59.05;;;25.83;;
77586;SDS011;66744;49.716;17.158;2024-01-11T02:17:34;67.13;;;27.88;;
77586;SDS011;66744;49.716;17.158;2024-01-11T02:20:36;67.93;;;28.70;;
77586;SDS011;66744;49.716;17.158;2024-01-11T02:23:52;79.97;;;33.47;;
77586;SDS011;66744;49.716;17.158;2024-01-11T02:27:00;69.32;;;29.00;;
77586;SDS011;66744;49.716;17.158;2024-01-11T02:30:03;69.55;;;29.90;;
77586;SDS011;66744;49.716;17.158;2024-01-11T02:33:06;64.60;;;26.33;;
77586;SDS011;66744;49.716;17.158;2024-01-11T02:36:08;62.60;;;25.13;;
77586;SDS011;66744;49.716;17.158;2024-01-11T02:39:10;61.08;;;25.77;;
77586;SDS011;66744;49.716;17.158;2024-01-11T02:42:12;70.13;;;27.52;;
77586;SDS011;66744;49.716;17.158;2024-01-11T02:45:15;55.35;;;26.23;;
77586;SDS011;66744;49.716;17.158;2024-01-11T02:48:18;54.38;;;24.10;;
77586;SDS011;66744;49.716;17.158;2024-01-11T02:51:21;55.80;;;23.33;;
77586;SDS011;66744;49.716;17.158;2024-01-11T02:54:22;56.95;;;24.80;;
77586;SDS011;66744;49.716;17.158;2024-01-11T02:57:24;58.35;;;27.75;;
77586;SDS011;66744;49.716;17.158;2024-01-11T03:03:26;53.00;;;24.30;;
77586;SDS011;66744;49.716;17.158;2024-01-11T03:06:28;57.63;;;24.20;;
77586;SDS011;66744;49.716;17.158;2024-01-11T03:09:29;59.80;;;26.17;;
77586;SDS011;66744;49.716;17.158;2024-01-11T03:12:31;62.97;;;25.85;;
77586;SDS011;66744;49.716;17.158;2024-01-11T03:15:32;49.45;;;23.55;;
77586;SDS011;66744;49.716;17.158;2024-01-11T03:18:37;58.67;;;25.27;;
77586;SDS011;66744;49.716;17.158;2024-01-11T03:21:43;56.50;;;24.67;;
77586;SDS011;66744;49.716;17.158;2024-01-11T03:24:45;47.88;;;21.77;;
77586;SDS011;66744;49.716;17.158;2024-01-11T03:27:47;49.13;;;19.83;;
77586;SDS011;66744;49.716;17.158;2024-01-11T03:30:48;48.58;;;19.92;;
77586;SDS011;66744;49.716;17.158;2024-01-11T03:33:50;41.13;;;17.35;;
77586;SDS011;66744;49.716;17.158;2024-01-11T03:36:52;34.08;;;15.73;;
77586;SDS011;66744;49.716;17.158;2024-01-11T03:39:56;39.55;;;17.40;;
77586;SDS011;66744;49.716;17.158;2024-01-11T03:42:58;32.45;;;16.83;;
77586;SDS011;66744;49.716;17.158;2024-01-11T03:46:02;34.90;;;17.10;;
77586;SDS011;66744;49.716;17.158;2024-01-11T03:49:05;38.05;;;16.48;;
77586;SDS011;66744;49.716;17.158;2024-01-11T03:52:09;38.75;;;17.55;;
77586;SDS011;66744;49.716;17.158;2024-01-11T03:55:12;33.60;;;16.30;;
77586;SDS011;66744;49.716;17.158;2024-01-11T03:58:16;31.45;;;16.42;;
77586;SDS011;66744;49.716;17.158;2024-01-11T04:01:18;37.40;;;18.35;;
77586;SDS011;66744;49.716;17.158;2024-01-11T04:04:22;38.00;;;20.77;;
77586;SDS011;66744;49.716;17.158;2024-01-11T04:07:26;43.58;;;20.35;;
77586;SDS011;66744;49.716;17.158;2024-01-11T04:10:28;40.85;;;16.67;;
77586;SDS011;66744;49.716;17.158;2024-01-11T04:13:29;41.80;;;17.50;;
77586;SDS011;66744;49.716;17.158;2024-01-11T04:16:31;38.60;;;17.33;;
77586;SDS011;66744;49.716;17.158;2024-01-11T04:19:32;42.75;;;17.05;;
77586;SDS011;66744;49.716;17.158;2024-01-11T04:22:34;39.75;;;16.63;;
77586;SDS011;66744;49.716;17.158;2024-01-11T04:25:38;34.88;;;16.80;;
77586;SDS011;66744;49.716;17.158;2024-01-11T04:28:39;36.92;;;17.13;;
77586;SDS011;66744;49.716;17.158;2024-01-11T04:31:41;37.88;;;17.30;;
77586;SDS011;66744;49.716;17.158;2024-01-11T04:34:42;35.17;;;17.20;;
77586;SDS011;66744;49.716;17.158;2024-01-11T04:37:45;41.30;;;16.02;;
77586;SDS011;66744;49.716;17.158;2024-01-11T04:40:47;33.47;;;16.23;;
77586;SDS011;66744;49.716;17.158;2024-01-11T04:43:49;28.55;;;14.68;;
77586;SDS011;66744;49.716;17.158;2024-01-11T04:46:51;38.53;;;17.55;;
77586;SDS011;66744;49.716;17.158;2024-01-11T04:49:52;34.80;;;16.45;;
77586;SDS011;66744;49.716;17.158;2024-01-11T04:52:54;39.05;;;17.65;;
77586;SDS011;66744;49.716;17.158;2024-01-11T04:55:59;36.75;;;16.67;;
77586;SDS011;66744;49.716;17.158;2024-01-11T04:59:00;37.90;;;16.65;;
77586;SDS011;66744;49.716;17.158;2024-01-11T05:02:04;33.95;;;16.65;;
77586;SDS011;66744;49.716;17.158;2024-01-11T05:05:06;35.13;;;14.45;;
77586;SDS011;66744;49.716;17.158;2024-01-11T05:08:08;41.95;;;17.73;;
77586;SDS011;66744;49.716;17.158;2024-01-11T05:11:19;36.60;;;17.48;;
77586;SDS011;66744;49.716;17.158;2024-01-11T05:14:25;40.22;;;17.75;;
77586;SDS011;66744;49.716;17.158;2024-01-11T05:17:29;34.90;;;16.13;;
77586;SDS011;66744;49.716;17.158;2024-01-11T05:20:34;37.28;;;17.17;;
77586;SDS011;66744;49.716;17.158;2024-01-11T05:23:35;45.97;;;17.88;;
77586;SDS011;66744;49.716;17.158;2024-01-11T05:26:37;41.20;;;19.95;;
77586;SDS011;66744;49.716;17.158;2024-01-11T05:29:40;35.08;;;16.70;;
77586;SDS011;66744;49.716;17.158;2024-01-11T05:32:41;41.55;;;18.80;;
77586;SDS011;66744;49.716;17.158;2024-01-11T05:35:42;40.72;;;18.15;;
77586;SDS011;66744;49.716;17.158;2024-01-11T05:38:44;42.50;;;18.90;;
77586;SDS011;66744;49.716;17.158;2024-01-11T05:41:48;43.00;;;19.45;;
77586;SDS011;66744;49.716;17.158;2024-01-11T05:44:51;48.92;;;21.85;;
77586;SDS011;66744;49.716;17.158;2024-01-11T05:47:52;55.90;;;23.88;;
77586;SDS011;66744;49.716;17.158;2024-01-11T05:50:54;53.60;;;26.17;;
77586;SDS011;66744;49.716;17.158;2024-01-11T05:53:55;51.28;;;21.70;;
77586;SDS011;66744;49.716;17.158;2024-01-11T05:56:56;47.83;;;19.58;;
77586;SDS011;66744;49.716;17.158;2024-01-11T05:59:59;50.75;;;21.90;;
77586;SDS011;66744;49.716;17.158;2024-01-11T06:06:02;41.63;;;19.33;;
77586;SDS011;66744;49.716;17.158;2024-01-11T06:09:07;42.85;;;20.73;;
77586;SDS011;66744;49.716;17.158;2024-01-11T06:12:09;49.42;;;20.38;;
77586;SDS011;66744;49.716;17.158;2024-01-11T06:15:10;46.65;;;21.50;;
77586;SDS011;66744;49.716;17.158;2024-01-11T06:18:11;48.55;;;22.95;;
77586;SDS011;66744;49.716;17.158;2024-01-11T06:21:12;63.05;;;29.17;;
77586;SDS011;66744;49.716;17.158;2024-01-11T06:24:14;70.03;;;29.25;;
77586;SDS011;66744;49.716;17.158;2024-01-11T06:27:15;51.28;;;25.30;;
77586;SDS011;66744;49.716;17.158;2024-01-11T06:30:16;51.80;;;23.42;;
77586;SDS011;66744;49.716;17.158;2024-01-11T06:33:18;58.85;;;24.67;;
77586;SDS011;66744;49.716;17.158;2024-01-11T06:36:21;44.40;;;21.35;;
77586;SDS011;66744;49.716;17.158;2024-01-11T06:39:22;58.75;;;27.23;;
77586;SDS011;66744;49.716;17.158;2024-01-11T06:42:23;49.60;;;22.63;;
77586;SDS011;66744;49.716;17.158;2024-01-11T06:45:24;51.75;;;23.30;;
77586;SDS011;66744;49.716;17.158;2024-01-11T06:48:25;63.00;;;26.33;;
77586;SDS011;66744;49.716;17.158;2024-01-11T06:51:26;68.32;;;27.08;;
77586;SDS011;66744;49.716;17.158;2024-01-11T06:54:28;64.40;;;26.17;;
77586;SDS011;66744;49.716;17.158;2024-01-11T06:57:31;50.25;;;23.13;;
77586;SDS011;66744;49.716;17.158;2024-01-11T07:00:32;48.42;;;22.25;;
77586;SDS011;66744;49.716;17.158;2024-01-11T07:03:41;37.55;;;17.70;;
77586;SDS011;66744;49.716;17.158;2024-01-11T07:06:42;32.50;;;15.48;;
77586;SDS011;66744;49.716;17.158;2024-01-11T07:09:43;44.45;;;17.98;;
77586;SDS011;66744;49.716;17.158;2024-01-11T07:12:45;54.20;;;22.20;;
77586;SDS011;66744;49.716;17.158;2024-01-11T07:15:48;82.35;;;29.95;;
77586;SDS011;66744;49.716;17.158;2024-01-11T07:18:53;62.90;;;27.48;;
77586;SDS011;66744;49.716;17.158;2024-01-11T07:21:54;59.25;;;25.20;;
77586;SDS011;66744;49.716;17.158;2024-01-11T07:24:55;56.92;;;25.00;;
77586;SDS011;66744;49.716;17.158;2024-01-11T07:27:56;52.80;;;23.85;;
77586;SDS011;66744;49.716;17.158;2024-01-11T07:30:58;45.63;;;21.15;;
77586;SDS011;66744;49.716;17.158;2024-01-11T07:33:59;60.20;;;26.50;;
77586;SDS011;66744;49.716;17.158;2024-01-11T07:40:01;55.08;;;24.83;;
77586;SDS011;66744;49.716;17.158;2024-01-11T07:43:04;56.13;;;24.00;;
77586;SDS011;66744;49.716;17.158;2024-01-11T07:46:05;54.72;;;25.13;;
77586;SDS011;66744;49.716;17.158;2024-01-11T07:49:08;49.97;;;21.70;;
77586;SDS011;66744;49.716;17.158;2024-01-11T07:52:09;51.53;;;24.10;;
77586;SDS011;66744;49.716;17.158;2024-01-11T07:55:12;48.28;;;21.30;;
77586;SDS011;66744;49.716;17.158;2024-01-11T07:58:16;50.85;;;21.58;;
77586;SDS011;66744;49.716;17.158;2024-01-11T08:01:18;57.60;;;26.38;;
77586;SDS011;66744;49.716;17.158;2024-01-11T08:04:19;61.53;;;25.85;;
77586;SDS011;66744;49.716;17.158;2024-01-11T08:07:21;68.15;;;29.80;;
77586;SDS011;66744;49.716;17.158;2024-01-11T08:10:22;60.95;;;25.52;;
77586;SDS011;66744;49.716;17.158;2024-01-11T08:13:24;66.03;;;28.83;;
77586;SDS011;66744;49.716;17.158;2024-01-11T08:16:25;52.42;;;25.30;;
77586;SDS011;66744;49.716;17.158;2024-01-11T08:19:26;60.25;;;24.88;;
77586;SDS011;66744;49.716;17.158;2024-01-11T08:22:28;50.03;;;23.83;;
77586;SDS011;66744;49.716;17.158;2024-01-11T08:25:29;55.97;;;22.58;;
77586;SDS011;66744;49.716;17.158;2024-01-11T08:28:30;39.40;;;18.65;;
77586;SDS011;66744;49.716;17.158;2024-01-11T08:31:33;42.03;;;17.77;;
77586;SDS011;66744;49.716;17.158;2024-01-11T08:34:34;43.35;;;20.27;;
77586;SDS011;66744;49.716;17.158;2024-01-11T08:37:36;49.22;;;22.83;;
77586;SDS011;66744;49.716;17.158;2024-01-11T08:40:37;43.10;;;20.73;;
77586;SDS011;66744;49.716;17.158;2024-01-11T08:43:39;34.30;;;18.88;;
77586;SDS011;66744;49.716;17.158;2024-01-11T08:46:40;37.97;;;17.80;;
77586;SDS011;66744;49.716;17.158;2024-01-11T08:49:41;33.30;;;17.45;;
77586;SDS011;66744;49.716;17.158;2024-01-11T08:52:42;37.88;;;17.55;;
77586;SDS011;66744;49.716;17.158;2024-01-11T08:58:45;35.50;;;16.48;;
77586;SDS011;66744;49.716;17.158;2024-01-11T09:01:47;40.08;;;18.88;;
77586;SDS011;66744;49.716;17.158;2024-01-11T09:04:48;37.17;;;17.17;;
77586;SDS011;66744;49.716;17.158;2024-01-11T09:07:51;35.45;;;17.77;;
77586;SDS011;66744;49.716;17.158;2024-01-11T09:10:52;35.22;;;16.33;;
77586;SDS011;66744;49.716;17.158;2024-01-11T09:13:54;35.60;;;15.35;;
77586;SDS011;66744;49.716;17.158;2024-01-11T09:19:56;30.65;;;14.70;;
77586;SDS011;66744;49.716;17.158;2024-01-11T09:22:57;33.38;;;14.73;;
77586;SDS011;66744;49.716;17.158;2024-01-11T09:29:00;29.85;;;15.15;;
77586;SDS011;66744;49.716;17.158;2024-01-11T09:32:01;34.83;;;17.25;;
77586;SDS011;66744;49.716;17.158;2024-01-11T09:35:04;27.80;;;15.15;;
77586;SDS011;66744;49.716;17.158;2024-01-11T09:38:05;32.35;;;15.10;;
77586;SDS011;66744;49.716;17.158;2024-01-11T09:41:08;29.55;;;14.30;;
77586;SDS011;66744;49.716;17.158;2024-01-11T09:44:12;27.05;;;13.55;;
77586;SDS011;66744;49.716;17.158;2024-01-11T09:47:13;30.17;;;14.65;;
77586;SDS011;66744;49.716;17.158;2024-01-11T09:50:19;32.42;;;15.70;;
77586;SDS011;66744;49.716;17.158;2024-01-11T09:53:23;33.60;;;16.20;;
77586;SDS011;66744;49.716;17.158;2024-01-11T09:56:27;38.55;;;16.90;;
77586;SDS011;66744;49.716;17.158;2024-01-11T09:59:29;30.40;;;13.93;;
77586;SDS011;66744;49.716;17.158;2024-01-11T10:02:31;29.63;;;15.63;;
77586;SDS011;66744;49.716;17.158;2024-01-11T10:05:34;34.45;;;18.55;;
77586;SDS011;66744;49.716;17.158;2024-01-11T10:08:37;31.67;;;15.40;;
77586;SDS011;66744;49.716;17.158;2024-01-11T10:11:38;31.13;;;15.32;;
77586;SDS011;66744;49.716;17.158;2024-01-11T10:14:39;29.35;;;14.80;;
77586;SDS011;66744;49.716;17.158;2024-01-11T10:17:41;33.47;;;15.95;;
77586;SDS011;66744;49.716;17.158;2024-01-11T10:20:44;34.60;;;16.60;;
77586;SDS011;66744;49.716;17.158;2024-01-11T10:23:46;33.42;;;18.58;;
77586;SDS011;66744;49.716;17.158;2024-01-11T10:26:47;31.73;;;16.35;;
77586;SDS011;66744;49.716;17.158;2024-01-11T10:32:52;36.92;;;17.40;;
77586;SDS011;66744;49.716;17.158;2024-01-11T10:35:54;38.17;;;20.23;;
77586;SDS011;66744;49.716;17.158;2024-01-11T10:42:04;43.50;;;20.40;;
77586;SDS011;66744;49.716;17.158;2024-01-11T10:45:08;43.55;;;21.90;;
77586;SDS011;66744;49.716;17.158;2024-01-11T10:48:15;46.75;;;22.00;;
77586;SDS011;66744;49.716;17.158;2024-01-11T10:51:16;40.47;;;22.45;;
77586;SDS011;66744;49.716;17.158;2024-01-11T10:54:22;46.67;;;22.88;;
77586;SDS011;66744;49.716;17.158;2024-01-11T10:57:24;41.10;;;20.88;;
77586;SDS011;66744;49.716;17.158;2024-01-11T11:00:27;47.47;;;23.73;;
77586;SDS011;66744;49.716;17.158;2024-01-11T11:03:30;40.47;;;20.75;;
77586;SDS011;66744;49.716;17.158;2024-01-11T11:06:33;50.10;;;22.35;;
77586;SDS011;66744;49.716;17.158;2024-01-11T11:09:35;47.08;;;21.00;;
77586;SDS011;66744;49.716;17.158;2024-01-11T11:12:40;35.78;;;17.80;;
77586;SDS011;66744;49.716;17.158;2024-01-11T11:15:46;42.70;;;18.33;;
77586;SDS011;66744;49.716;17.158;2024-01-11T11:18:50;42.08;;;20.38;;
77586;SDS011;66744;49.716;17.158;2024-01-11T11:21:55;36.83;;;17.73;;
77586;SDS011;66744;49.716;17.158;2024-01-11T11:25:02;41.85;;;19.77;;
77586;SDS011;66744;49.716;17.158;2024-01-11T11:28:06;37.15;;;17.63;;
77586;SDS011;66744;49.716;17.158;2024-01-11T11:31:08;39.67;;;18.25;;
77586;SDS011;66744;49.716;17.158;2024-01-11T11:34:12;37.33;;;18.35;;
77586;SDS011;66744;49.716;17.158;2024-01-11T11:37:22;30.88;;;16.50;;
77586;SDS011;66744;49.716;17.158;2024-01-11T11:40:37;36.78;;;17.67;;
77586;SDS011;66744;49.716;17.158;2024-01-11T11:43:47;33.17;;;16.88;;
77586;SDS011;66744;49.716;17.158;2024-01-11T11:46:48;38.08;;;18.02;;
77586;SDS011;66744;49.716;17.158;2024-01-11T11:50:03;37.00;;;18.42;;
77586;SDS011;66744;49.716;17.158;2024-01-11T11:53:10;34.67;;;16.35;;
77586;SDS011;66744;49.716;17.158;2024-01-11T11:56:13;33.80;;;16.55;;
77586;SDS011;66744;49.716;17.158;2024-01-11T11:59:17;35.38;;;16.35;;
77586;SDS011;66744;49.716;17.158;2024-01-11T12:02:20;31.52;;;17.42;;
77586;SDS011;66744;49.716;17.158;2024-01-11T12:05:23;40.30;;;16.98;;
77586;SDS011;66744;49.716;17.158;2024-01-11T12:08:24;30.95;;;17.00;;
77586;SDS011;66744;49.716;17.158;2024-01-11T12:11:26;36.72;;;17.65;;
77586;SDS011;66744;49.716;17.158;2024-01-11T12:14:30;34.08;;;15.48;;
77586;SDS011;66744;49.716;17.158;2024-01-11T12:20:32;31.85;;;15.13;;
77586;SDS011;66744;49.716;17.158;2024-01-11T12:23:38;34.33;;;15.07;;
77586;SDS011;66744;49.716;17.158;2024-01-11T12:26:40;27.67;;;14.43;;
77586;SDS011;66744;49.716;17.158;2024-01-11T12:29:42;30.95;;;15.82;;
77586;SDS011;66744;49.716;17.158;2024-01-11T12:32:43;35.72;;;17.45;;
77586;SDS011;66744;49.716;17.158;2024-01-11T12:35:45;32.53;;;15.75;;
77586;SDS011;66744;49.716;17.158;2024-01-11T12:38:47;28.25;;;14.85;;
77586;SDS011;66744;49.716;17.158;2024-01-11T12:41:49;37.42;;;17.65;;
77586;SDS011;66744;49.716;17.158;2024-01-11T12:44:51;37.15;;;18.30;;
77586;SDS011;66744;49.716;17.158;2024-01-11T12:50:55;30.05;;;15.80;;
77586;SDS011;66744;49.716;17.158;2024-01-11T12:58:47;31.35;;;16.05;;
77586;SDS011;66744;49.716;17.158;2024-01-11T13:01:48;34.97;;;16.50;;
77586;SDS011;66744;49.716;17.158;2024-01-11T13:04:50;34.83;;;16.70;;
77586;SDS011;66744;49.716;17.158;2024-01-11T13:07:51;32.38;;;15.48;;
77586;SDS011;66744;49.716;17.158;2024-01-11T13:10:53;35.58;;;15.73;;
77586;SDS011;66744;49.716;17.158;2024-01-11T13:16:55;31.02;;;14.63;;
77586;SDS011;66744;49.716;17.158;2024-01-11T13:23:13;30.27;;;14.20;;
77586;SDS011;66744;49.716;17.158;2024-01-11T13:26:16;31.55;;;16.15;;
77586;SDS011;66744;49.716;17.158;2024-01-11T13:29:17;29.90;;;15.93;;
77586;SDS011;66744;49.716;17.158;2024-01-11T13:32:18;33.97;;;16.30;;
77586;SDS011;66744;49.716;17.158;2024-01-11T13:35:23;31.27;;;15.25;;
77586;SDS011;66744;49.716;17.158;2024-01-11T13:41:25;33.78;;;15.77;;
77586;SDS011;66744;49.716;17.158;2024-01-11T13:47:27;35.50;;;16.50;;
77586;SDS011;66744;49.716;17.158;2024-01-11T13:53:29;27.27;;;13.38;;
77586;SDS011;66744;49.716;17.158;2024-01-11T13:56:31;33.20;;;17.40;;
77586;SDS011;66744;49.716;17.158;2024-01-11T13:59:32;31.25;;;16.00;;
77586;SDS011;66744;49.716;17.158;2024-01-11T14:02:34;31.33;;;15.40;;
77586;SDS011;66744;49.716;17.158;2024-01-11T14:05:37;34.08;;;17.67;;
77586;SDS011;66744;49.716;17.158;2024-01-11T14:08:39;35.95;;;17.33;;
77586;SDS011;66744;49.716;17.158;2024-01-11T14:11:40;36.00;;;18.63;;
77586;SDS011;66744;49.716;17.158;2024-01-11T14:14:41;33.17;;;17.77;;
77586;SDS011;66744;49.716;17.158;2024-01-11T14:17:43;32.67;;;17.45;;
77586;SDS011;66744;49.716;17.158;2024-01-11T14:20:44;33.78;;;16.23;;
77586;SDS011;66744;49.716;17.158;2024-01-11T14:23:46;36.25;;;17.92;;
77586;SDS011;66744;49.716;17.158;2024-01-11T14:29:48;28.02;;;16.02;;
77586;SDS011;66744;49.716;17.158;2024-01-11T14:32:51;31.90;;;16.52;;
77586;SDS011;66744;49.716;17.158;2024-01-11T14:35:53;31.02;;;17.08;;
77586;SDS011;66744;49.716;17.158;2024-01-11T14:38:57;34.88;;;17.67;;
77586;SDS011;66744;49.716;17.158;2024-01-11T14:42:03;31.90;;;17.40;;
77586;SDS011;66744;49.716;17.158;2024-01-11T14:45:05;51.88;;;20.55;;
77586;SDS011;66744;49.716;17.158;2024-01-11T14:48:07;34.90;;;18.00;;
77586;SDS011;66744;49.716;17.158;2024-01-11T14:51:09;33.65;;;17.15;;
77586;SDS011;66744;49.716;17.158;2024-01-11T14:54:10;40.40;;;19.23;;
77586;SDS011;66744;49.716;17.158;2024-01-11T14:57:12;39.90;;;19.17;;
77586;SDS011;66744;49.716;17.158;2024-01-11T15:00:14;41.70;;;19.48;;
77586;SDS011;66744;49.716;17.158;2024-01-11T15:03:15;38.00;;;18.35;;
77586;SDS011;66744;49.716;17.158;2024-01-11T15:06:17;42.75;;;19.50;;
77586;SDS011;66744;49.716;17.158;2024-01-11T15:09:18;36.17;;;16.85;;
77586;SDS011;66744;49.716;17.158;2024-01-11T15:12:19;32.67;;;16.10;;
77586;SDS011;66744;49.716;17.158;2024-01-11T15:15:23;29.92;;;16.70;;
77586;SDS011;66744;49.716;17.158;2024-01-11T15:18:26;38.70;;;18.42;;
77586;SDS011;66744;49.716;17.158;2024-01-11T15:21:27;33.35;;;17.42;;
77586;SDS011;66744;49.716;17.158;2024-01-11T15:24:28;34.80;;;18.05;;
77586;SDS011;66744;49.716;17.158;2024-01-11T15:27:30;35.38;;;18.58;;
77586;SDS011;66744;49.716;17.158;2024-01-11T15:30:33;36.78;;;17.95;;
77586;SDS011;66744;49.716;17.158;2024-01-11T15:33:34;40.80;;;18.73;;
77586;SDS011;66744;49.716;17.158;2024-01-11T15:36:36;34.80;;;18.02;;
77586;SDS011;66744;49.716;17.158;2024-01-11T15:39:43;36.88;;;18.35;;
77586;SDS011;66744;49.716;17.158;2024-01-11T15:42:45;82.57;;;31.45;;
77586;SDS011;66744;49.716;17.158;2024-01-11T15:45:51;98.68;;;39.33;;
77586;SDS011;66744;49.716;17.158;2024-01-11T15:49:08;97.85;;;46.67;;
77586;SDS011;66744;49.716;17.158;2024-01-11T15:52:10;63.35;;;28.88;;
77586;SDS011;66744;49.716;17.158;2024-01-11T15:55:12;45.67;;;22.42;;
77586;SDS011;66744;49.716;17.158;2024-01-11T15:58:22;41.20;;;19.02;;
77586;SDS011;66744;49.716;17.158;2024-01-11T16:04:24;49.25;;;24.90;;
77586;SDS011;66744;49.716;17.158;2024-01-11T16:07:42;49.92;;;26.30;;
77586;SDS011;66744;49.716;17.158;2024-01-11T16:10:43;50.17;;;23.92;;
77586;SDS011;66744;49.716;17.158;2024-01-11T16:13:48;44.38;;;20.20;;
77586;SDS011;66744;49.716;17.158;2024-01-11T16:16:50;42.65;;;22.38;;
77586;SDS011;66744;49.716;17.158;2024-01-11T16:19:52;37.90;;;20.15;;
77586;SDS011;66744;49.716;17.158;2024-01-11T16:25:54;32.17;;;17.00;;
77586;SDS011;66744;49.716;17.158;2024-01-11T16:28:56;54.72;;;27.27;;
77586;SDS011;66744;49.716;17.158;2024-01-11T16:31:57;111.72;;;50.05;;
77586;SDS011;66744;49.716;17.158;2024-01-11T16:34:59;80.07;;;36.10;;
77586;SDS011;66744;49.716;17.158;2024-01-11T16:38:01;61.88;;;30.08;;
77586;SDS011;66744;49.716;17.158;2024-01-11T16:41:04;61.60;;;30.52;;
77586;SDS011;66744;49.716;17.158;2024-01-11T16:44:07;56.83;;;29.35;;
77586;SDS011;66744;49.716;17.158;2024-01-11T16:47:09;47.58;;;24.02;;
77586;SDS011;66744;49.716;17.158;2024-01-11T16:50:11;46.97;;;23.65;;
77586;SDS011;66744;49.716;17.158;2024-01-11T16:53:13;49.28;;;28.17;;
77586;SDS011;66744;49.716;17.158;2024-01-11T16:56:14;53.50;;;26.25;;
77586;SDS011;66744;49.716;17.158;2024-01-11T16:59:15;44.97;;;22.55;;
77586;SDS011;66744;49.716;17.158;2024-01-11T17:02:19;49.17;;;23.35;;
77586;SDS011;66744;49.716;17.158;2024-01-11T17:05:24;48.63;;;25.48;;
77586;SDS011;66744;49.716;17.158;2024-01-11T17:08:27;48.60;;;24.75;;
77586;SDS011;66744;49.716;17.158;2024-01-11T17:11:28;55.45;;;27.98;;
77586;SDS011;66744;49.716;17.158;2024-01-11T17:14:29;60.80;;;29.98;;
77586;SDS011;66744;49.716;17.158;2024-01-11T17:17:31;54.92;;;28.92;;
77586;SDS011;66744;49.716;17.158;2024-01-11T17:20:32;47.65;;;24.58;;
77586;SDS011;66744;49.716;17.158;2024-01-11T17:23:35;46.88;;;24.40;;
77586;SDS011;66744;49.716;17.158;2024-01-11T17:26:37;44.25;;;20.55;;
77586;SDS011;66744;49.716;17.158;2024-01-11T17:29:39;44.33;;;21.45;;
77586;SDS011;66744;49.716;17.158;2024-01-11T17:32:50;37.05;;;18.02;;
77586;SDS011;66744;49.716;17.158;2024-01-11T17:35:56;33.65;;;17.23;;
77586;SDS011;66744;49.716;17.158;2024-01-11T17:39:00;41.33;;;18.85;;
77586;SDS011;66744;49.716;17.158;2024-01-11T17:42:02;39.45;;;19.05;;
77586;SDS011;66744;49.716;17.158;2024-01-11T17:45:03;46.58;;;24.02;;
77586;SDS011;66744;49.716;17.158;2024-01-11T17:48:14;39.30;;;22.42;;
77586;SDS011;66744;49.716;17.158;2024-01-11T17:51:17;37.70;;;20.90;;
77586;SDS011;66744;49.716;17.158;2024-01-11T17:54:18;39.15;;;20.30;;
77586;SDS011;66744;49.716;17.158;2024-01-11T17:57:25;38.22;;;20.65;;
77586;SDS011;66744;49.716;17.158;2024-01-11T18:00:27;46.58;;;21.77;;
77586;SDS011;66744;49.716;17.158;2024-01-11T18:03:30;42.17;;;21.38;;
77586;SDS011;66744;49.716;17.158;2024-01-11T18:06:33;45.00;;;23.25;;
77586;SDS011;66744;49.716;17.158;2024-01-11T18:09:39;44.10;;;23.15;;
77586;SDS011;66744;49.716;17.158;2024-01-11T18:12:43;44.40;;;22.40;;
77586;SDS011;66744;49.716;17.158;2024-01-11T18:15:45;49.38;;;23.90;;
77586;SDS011;66744;49.716;17.158;2024-01-11T18:18:46;45.20;;;22.88;;
77586;SDS011;66744;49.716;17.158;2024-01-11T18:21:49;45.90;;;21.67;;
77586;SDS011;66744;49.716;17.158;2024-01-11T18:24:53;36.53;;;18.42;;
77586;SDS011;66744;49.716;17.158;2024-01-11T18:28:21;40.53;;;19.35;;
77586;SDS011;66744;49.716;17.158;2024-01-11T18:31:22;55.75;;;25.33;;
77586;SDS011;66744;49.716;17.158;2024-01-11T18:37:25;56.05;;;26.25;;
77586;SDS011;66744;49.716;17.158;2024-01-11T18:40:30;47.95;;;23.20;;
77586;SDS011;66744;49.716;17.158;2024-01-11T18:43:31;47.92;;;23.92;;
77586;SDS011;66744;49.716;17.158;2024-01-11T18:46:39;63.90;;;30.90;;
77586;SDS011;66744;49.716;17.158;2024-01-11T18:49:41;67.70;;;29.40;;
77586;SDS011;66744;49.716;17.158;2024-01-11T18:55:44;55.03;;;27.73;;
77586;SDS011;66744;49.716;17.158;2024-01-11T18:58:46;55.70;;;28.27;;